createdAt,value
2023-01-31T00:02:23.719Z,22.63
2023-01-31T00:05:09.940Z,24.47
2023-01-31T00:07:54.247Z,25.30
2023-01-31T00:10:38.491Z,29.23
2023-01-31T00:13:22.318Z,32.03
2023-01-31T00:16:07.129Z,29.27
2023-01-31T00:18:51.189Z,32.27
2023-01-31T00:21:36.304Z,30.07
2023-01-31T00:24:20.154Z,28.27
2023-01-31T00:27:03.898Z,35.23
2023-01-31T00:29:47.621Z,28.97
2023-01-31T00:32:33.038Z,32.23
2023-01-31T00:35:16.912Z,32.43
2023-01-31T00:38:02.996Z,31.33
2023-01-31T00:40:53.372Z,32.13
2023-01-31T00:43:37.949Z,32.03
2023-01-31T00:46:23.797Z,30.90
2023-01-31T00:49:07.926Z,29.90
2023-01-31T00:51:51.881Z,31.23
2023-01-31T00:54:37.242Z,30.70
2023-01-31T00:57:21.644Z,30.00
2023-01-31T01:00:06.769Z,29.93
2023-01-31T01:02:50.686Z,27.03
2023-01-31T01:05:35.326Z,26.73
2023-01-31T01:08:19.780Z,25.33
2023-01-31T01:11:08.434Z,23.87
2023-01-31T01:13:52.870Z,23.53
2023-01-31T01:16:40.113Z,21.77
2023-01-31T01:19:24.146Z,21.67
2023-01-31T01:22:08.033Z,20.60
2023-01-31T01:24:52.685Z,19.23
2023-01-31T01:27:37.855Z,18.73
2023-01-31T01:30:22.369Z,17.67
2023-01-31T01:33:06.247Z,19.80
2023-01-31T01:35:50.439Z,18.60
2023-01-31T01:38:36.465Z,17.47
2023-01-31T01:41:20.838Z,17.33
2023-01-31T01:44:39.508Z,16.97
2023-01-31T01:47:35.507Z,18.00
2023-01-31T01:50:26.802Z,16.67
2023-01-31T01:53:13.720Z,16.57
2023-01-31T01:56:01.517Z,17.90
2023-01-31T01:58:52.166Z,19.10
2023-01-31T02:01:38.553Z,17.63
2023-01-31T02:04:32.226Z,18.63
2023-01-31T02:07:16.084Z,18.10
2023-01-31T02:10:04.819Z,17.77
2023-01-31T02:12:48.659Z,19.27
2023-01-31T02:15:32.959Z,19.43
2023-01-31T02:18:18.522Z,17.37
2023-01-31T02:21:30.720Z,18.07
2023-01-31T02:24:49.783Z,19.83
2023-01-31T02:28:01.288Z,19.07
2023-01-31T02:31:29.822Z,20.43
2023-01-31T02:34:20.781Z,19.30
2023-01-31T02:37:18.271Z,19.47
2023-01-31T02:40:12.472Z,18.57
2023-01-31T02:43:02.826Z,18.77
2023-01-31T02:45:54.545Z,18.63
2023-01-31T02:48:51.376Z,19.87
2023-01-31T02:51:41.375Z,19.47
2023-01-31T02:54:48.339Z,19.63
2023-01-31T02:57:31.578Z,19.97
2023-01-31T03:00:16.437Z,18.07
2023-01-31T03:03:00.212Z,19.60
2023-01-31T03:05:43.997Z,19.90
2023-01-31T03:08:29.287Z,22.10
2023-01-31T03:11:13.353Z,22.03
2023-01-31T03:14:10.000Z,15.73
2023-01-31T03:17:15.572Z,15.20
2023-01-31T03:20:05.986Z,16.83
2023-01-31T03:22:55.810Z,17.20
2023-01-31T03:25:42.196Z,20.63
2023-01-31T03:28:31.690Z,16.97
2023-01-31T03:31:20.858Z,23.07
2023-01-31T03:34:07.960Z,17.33
2023-01-31T03:36:58.646Z,20.60
2023-01-31T03:40:01.320Z,19.10
2023-01-31T03:42:55.379Z,16.23
2023-01-31T03:45:43.452Z,16.37
2023-01-31T03:48:32.658Z,15.30
2023-01-31T03:51:21.002Z,16.10
2023-01-31T03:54:09.147Z,17.37
2023-01-31T03:56:58.779Z,19.30
2023-01-31T03:59:48.430Z,19.50
2023-01-31T04:02:36.063Z,16.40
2023-01-31T04:05:23.897Z,32.00
2023-01-31T04:08:12.504Z,20.67
2023-01-31T04:11:00.244Z,18.77
2023-01-31T04:13:44.316Z,17.67
2023-01-31T04:16:29.584Z,17.43
2023-01-31T04:19:13.372Z,16.83
2023-01-31T04:21:57.143Z,18.27
2023-01-31T04:24:40.963Z,20.60
2023-01-31T04:27:25.481Z,18.27
2023-01-31T04:30:10.732Z,19.03
2023-01-31T04:32:55.963Z,17.40
2023-01-31T04:35:41.159Z,18.43
2023-01-31T04:38:25.051Z,17.17
2023-01-31T04:41:09.770Z,22.50
2023-01-31T04:43:53.611Z,16.07
2023-01-31T04:46:37.417Z,16.20
2023-01-31T04:49:22.810Z,20.03
2023-01-31T04:52:07.381Z,22.67
2023-01-31T04:54:51.305Z,21.03
2023-01-31T04:57:35.148Z,21.93
2023-01-31T05:00:20.293Z,22.17
2023-01-31T05:03:04.117Z,23.53
2023-01-31T05:05:50.750Z,23.00
2023-01-31T05:08:34.549Z,32.90
2023-01-31T05:11:18.453Z,28.00
2023-01-31T05:14:02.280Z,20.77
2023-01-31T05:16:48.563Z,22.47
2023-01-31T05:19:32.642Z,22.50
2023-01-31T05:22:17.958Z,23.80
2023-01-31T05:25:01.745Z,23.10
2023-01-31T05:27:46.865Z,24.90
2023-01-31T05:30:31.479Z,29.23
2023-01-31T05:33:15.593Z,28.73
2023-01-31T05:35:59.516Z,31.10
2023-01-31T05:38:44.685Z,30.60
2023-01-31T05:41:28.511Z,30.37
2023-01-31T05:44:12.384Z,27.67
2023-01-31T05:46:56.290Z,29.30
2023-01-31T05:49:40.332Z,27.73
2023-01-31T05:52:24.151Z,27.93
2023-01-31T05:55:10.303Z,28.37
2023-01-31T05:57:54.883Z,30.67
2023-01-31T06:00:38.787Z,35.80
2023-01-31T06:03:22.762Z,39.73
2023-01-31T06:06:07.043Z,39.93
2023-01-31T06:08:50.901Z,40.60
2023-01-31T06:11:36.089Z,31.17
2023-01-31T06:14:20.443Z,30.53
2023-01-31T06:17:04.230Z,27.83
2023-01-31T06:19:48.136Z,28.60
2023-01-31T06:22:31.915Z,28.07
2023-01-31T06:25:15.812Z,27.47
2023-01-31T06:28:01.120Z,78.07
2023-01-31T06:30:45.168Z,33.40
2023-01-31T06:33:43.625Z,32.53
2023-01-31T06:36:34.197Z,30.97
2023-01-31T06:39:18.044Z,32.40
2023-01-31T06:42:01.779Z,34.47
2023-01-31T06:44:47.083Z,31.37
2023-01-31T06:47:30.874Z,30.97
2023-01-31T06:50:15.006Z,28.00
2023-01-31T06:52:59.412Z,29.37
2023-01-31T06:55:43.302Z,29.33
2023-01-31T06:58:27.089Z,28.57
2023-01-31T07:01:14.459Z,29.70
2023-01-31T07:03:58.315Z,25.23
2023-01-31T07:06:42.206Z,31.10
2023-01-31T07:09:26.059Z,30.83
2023-01-31T07:12:09.954Z,31.13
2023-01-31T07:14:53.869Z,36.43
2023-01-31T07:17:39.335Z,37.00
2023-01-31T07:20:23.414Z,37.60
2023-01-31T07:23:07.397Z,36.87
2023-01-31T07:25:51.222Z,37.73
2023-01-31T07:28:34.998Z,22.33
2023-01-31T07:31:18.932Z,18.43
2023-01-31T07:34:04.232Z,32.57
2023-01-31T07:36:47.972Z,22.00
2023-01-31T07:39:32.272Z,28.70
2023-01-31T07:42:16.347Z,26.97
2023-01-31T07:45:10.081Z,22.97
2023-01-31T07:48:01.012Z,18.10
2023-01-31T07:50:46.372Z,19.20
2023-01-31T07:53:32.333Z,19.07
2023-01-31T07:56:18.267Z,19.83
2023-01-31T07:59:02.230Z,18.27
2023-01-31T08:02:03.373Z,18.97
2023-01-31T08:04:47.807Z,18.37
2023-01-31T08:07:33.163Z,19.00
2023-01-31T08:10:17.998Z,18.53
2023-01-31T08:13:01.766Z,18.17
2023-01-31T08:15:45.829Z,21.10
2023-01-31T08:18:29.755Z,17.93
2023-01-31T08:21:14.527Z,18.13
2023-01-31T08:23:59.804Z,16.07
2023-01-31T08:26:44.504Z,18.10
2023-01-31T08:29:29.495Z,17.80
2023-01-31T08:32:13.497Z,17.17
2023-01-31T08:34:57.291Z,17.43
2023-01-31T08:37:41.185Z,17.63
2023-01-31T08:40:26.375Z,15.90
2023-01-31T08:43:10.329Z,16.03
2023-01-31T08:45:54.240Z,15.93
2023-01-31T08:48:39.611Z,15.90
2023-01-31T08:51:24.104Z,16.90
2023-01-31T08:54:09.838Z,13.77
2023-01-31T08:56:55.035Z,17.97
2023-01-31T08:59:38.945Z,16.60
2023-01-31T09:02:22.782Z,15.60
2023-01-31T09:05:08.387Z,16.70
2023-01-31T09:07:52.234Z,14.40
2023-01-31T09:10:36.029Z,15.97
2023-01-31T09:13:21.539Z,16.87
2023-01-31T09:16:08.755Z,16.50
2023-01-31T09:18:56.417Z,16.40
2023-01-31T09:21:40.279Z,15.07
2023-01-31T09:24:23.987Z,14.40
2023-01-31T09:27:07.692Z,15.90
2023-01-31T09:29:52.877Z,16.10
2023-01-31T09:32:37.250Z,15.63
2023-01-31T09:35:22.071Z,13.50
2023-01-31T09:38:06.033Z,16.67
2023-01-31T09:40:49.841Z,15.33
2023-01-31T09:43:37.378Z,14.10
2023-01-31T09:46:27.611Z,14.07
2023-01-31T09:49:19.315Z,16.00
2023-01-31T09:52:04.913Z,15.20
2023-01-31T09:54:48.688Z,15.93
2023-01-31T09:57:48.325Z,15.90
2023-01-31T10:00:36.957Z,14.37
2023-01-31T10:03:39.964Z,14.37
2023-01-31T10:06:26.772Z,15.63
2023-01-31T10:09:21.209Z,15.07
2023-01-31T10:12:11.533Z,15.47
2023-01-31T10:14:58.382Z,15.87
2023-01-31T10:17:46.871Z,13.87
2023-01-31T10:20:38.699Z,14.43
2023-01-31T10:23:29.288Z,15.17
2023-01-31T10:26:19.360Z,14.87
2023-01-31T10:29:12.110Z,15.97
2023-01-31T10:32:00.277Z,14.90
2023-01-31T10:34:46.526Z,15.80
2023-01-31T10:37:38.953Z,16.63
2023-01-31T10:40:30.380Z,16.77
2023-01-31T10:43:20.044Z,15.07
2023-01-31T10:46:04.152Z,15.77
2023-01-31T10:48:49.693Z,15.90
2023-01-31T10:51:53.431Z,15.77
2023-01-31T10:54:51.080Z,12.57
2023-01-31T10:57:35.460Z,13.90
2023-01-31T11:00:24.325Z,11.93
2023-01-31T11:03:08.354Z,12.43
2023-01-31T11:05:54.285Z,10.30
2023-01-31T11:08:43.674Z,13.53
2023-01-31T11:11:30.927Z,13.67
2023-01-31T11:14:19.750Z,12.37
2023-01-31T11:17:08.289Z,11.13
2023-01-31T11:19:54.113Z,12.00
2023-01-31T11:22:38.895Z,11.20
2023-01-31T11:25:24.876Z,11.43
2023-01-31T11:28:23.131Z,12.60
2023-01-31T11:31:09.985Z,12.10
2023-01-31T11:33:59.436Z,11.17
2023-01-31T11:36:45.810Z,11.83
2023-01-31T11:39:32.707Z,10.47
2023-01-31T11:42:18.232Z,9.27
2023-01-31T11:45:05.843Z,12.13
2023-01-31T11:47:52.417Z,11.80
2023-01-31T11:50:39.840Z,9.73
2023-01-31T11:53:26.239Z,10.77
2023-01-31T11:56:16.029Z,10.73
2023-01-31T11:59:06.084Z,13.13
2023-01-31T12:01:54.758Z,11.83
2023-01-31T12:04:44.163Z,10.63
2023-01-31T12:07:30.689Z,10.23
2023-01-31T12:10:31.673Z,9.07
2023-01-31T12:13:19.189Z,9.93
2023-01-31T12:16:06.869Z,9.77
2023-01-31T12:19:07.238Z,10.00
2023-01-31T12:21:57.689Z,11.03
2023-01-31T12:24:54.679Z,10.80
2023-01-31T12:28:01.652Z,9.90
2023-01-31T12:31:04.285Z,10.90
2023-01-31T12:34:07.344Z,9.27
2023-01-31T12:37:07.470Z,9.63
2023-01-31T12:40:11.887Z,7.93
2023-01-31T12:43:06.284Z,7.30
2023-01-31T12:46:07.377Z,7.73
2023-01-31T12:49:06.889Z,7.33
2023-01-31T12:52:02.679Z,7.13
2023-01-31T12:55:03.120Z,7.90
2023-01-31T12:57:55.955Z,8.23
2023-01-31T13:00:48.904Z,6.57
2023-01-31T13:03:49.396Z,7.53
2023-01-31T13:06:37.724Z,6.23
2023-01-31T13:09:27.805Z,7.37
2023-01-31T13:12:16.436Z,16.20
2023-01-31T13:15:06.343Z,17.17
2023-01-31T13:17:58.658Z,8.37
2023-01-31T13:20:47.786Z,10.13
2023-01-31T13:23:35.854Z,9.13
2023-01-31T13:26:26.696Z,9.47
2023-01-31T13:29:16.149Z,10.20
2023-01-31T13:32:03.666Z,8.50
2023-01-31T13:34:52.653Z,7.70
2023-01-31T13:37:41.941Z,7.93
2023-01-31T13:40:29.217Z,8.63
2023-01-31T13:43:17.603Z,8.37
2023-01-31T13:46:05.694Z,7.57
2023-01-31T13:48:54.363Z,8.53
2023-01-31T13:51:43.753Z,8.70
2023-01-31T13:54:33.501Z,8.73
2023-01-31T13:57:25.568Z,7.67
2023-01-31T14:00:38.057Z,8.17
2023-01-31T14:03:22.268Z,8.07
2023-01-31T14:06:06.419Z,7.27
2023-01-31T14:09:00.272Z,7.80
2023-01-31T14:11:45.851Z,7.13
2023-01-31T14:14:41.868Z,8.07
2023-01-31T14:18:01.370Z,7.90
2023-01-31T14:20:45.434Z,6.37
2023-01-31T14:23:32.612Z,8.57
2023-01-31T14:26:38.827Z,7.83
2023-01-31T14:29:25.920Z,12.77
2023-01-31T14:32:16.519Z,8.47
2023-01-31T14:35:19.136Z,11.20
2023-01-31T14:38:12.819Z,21.63
2023-01-31T14:41:05.864Z,9.60
2023-01-31T14:44:02.339Z,12.37
2023-01-31T14:47:09.065Z,9.23
2023-01-31T14:50:25.274Z,8.27
2023-01-31T14:53:25.051Z,7.13
2023-01-31T14:56:26.934Z,10.63
2023-01-31T14:59:27.943Z,12.70
2023-01-31T15:02:47.993Z,11.27
2023-01-31T15:05:52.261Z,9.73
2023-01-31T15:08:46.193Z,13.10
2023-01-31T15:11:43.196Z,10.07
2023-01-31T15:14:35.667Z,8.60
2023-01-31T15:17:35.132Z,6.10
2023-01-31T15:20:24.804Z,9.83
2023-01-31T15:23:20.123Z,8.10
2023-01-31T15:26:04.849Z,9.43
2023-01-31T15:28:50.835Z,7.57
2023-01-31T15:31:41.318Z,9.57
2023-01-31T15:34:32.075Z,7.13
2023-01-31T15:37:22.824Z,7.80
2023-01-31T15:40:18.095Z,6.83
2023-01-31T15:43:23.778Z,5.20
2023-01-31T15:46:23.803Z,7.33
2023-01-31T15:49:37.657Z,7.60
2023-01-31T15:52:23.775Z,9.40
2023-01-31T15:55:14.308Z,11.00
2023-01-31T15:58:01.053Z,9.27
2023-01-31T16:00:45.521Z,9.33
2023-01-31T16:03:30.996Z,8.73
2023-01-31T16:06:23.231Z,7.57
2023-01-31T16:09:10.722Z,7.67
2023-01-31T16:11:57.232Z,6.77
2023-01-31T16:14:44.104Z,10.07
2023-01-31T16:17:29.400Z,8.00
2023-01-31T16:20:39.776Z,8.03
2023-01-31T16:23:30.327Z,7.07
2023-01-31T16:26:17.875Z,7.60
2023-01-31T16:29:10.458Z,8.27
2023-01-31T16:31:56.756Z,6.03
2023-01-31T16:34:41.711Z,8.60
2023-01-31T16:37:35.135Z,9.83
2023-01-31T16:40:22.696Z,6.33
2023-01-31T16:43:12.858Z,7.43
2023-01-31T16:46:00.878Z,6.93
2023-01-31T16:49:02.215Z,6.63
2023-01-31T16:51:48.543Z,7.97
2023-01-31T16:54:43.927Z,7.93
2023-01-31T16:57:38.713Z,9.13
2023-01-31T17:00:36.497Z,8.93
2023-01-31T17:03:22.185Z,8.13
2023-01-31T17:06:07.281Z,16.87
2023-01-31T17:08:51.430Z,12.00
2023-01-31T17:11:43.587Z,13.73
2023-01-31T17:14:27.766Z,10.73
2023-01-31T17:17:20.676Z,10.50
2023-01-31T17:20:07.868Z,10.27
2023-01-31T17:23:02.303Z,10.30
2023-01-31T17:25:47.650Z,13.60
2023-01-31T17:28:31.785Z,8.40
2023-01-31T17:31:20.410Z,9.13
2023-01-31T17:34:04.754Z,8.87
2023-01-31T17:36:50.073Z,8.10
2023-01-31T17:39:35.173Z,7.83
2023-01-31T17:42:23.148Z,9.07
2023-01-31T17:45:14.261Z,7.13
2023-01-31T17:47:59.319Z,6.23
2023-01-31T17:50:45.597Z,8.30
2023-01-31T17:53:40.352Z,7.60
2023-01-31T17:56:31.863Z,7.67
2023-01-31T17:59:26.933Z,7.47
2023-01-31T18:02:14.869Z,7.97
2023-01-31T18:05:00.478Z,9.37
2023-01-31T18:07:50.065Z,9.27
2023-01-31T18:10:39.506Z,7.33
2023-01-31T18:13:24.491Z,9.20
2023-01-31T18:16:21.552Z,7.43
2023-01-31T18:19:07.012Z,8.80
2023-01-31T18:21:55.697Z,6.97
2023-01-31T18:24:41.646Z,7.10
2023-01-31T18:27:28.533Z,7.33
2023-01-31T18:30:14.679Z,7.83
2023-01-31T18:33:00.032Z,8.03
2023-01-31T18:35:46.006Z,8.47
2023-01-31T18:38:32.278Z,8.03
2023-01-31T18:41:19.955Z,8.17
2023-01-31T18:44:08.622Z,8.10
2023-01-31T18:46:53.909Z,8.67
2023-01-31T18:49:42.053Z,8.60
2023-01-31T18:52:28.537Z,8.17
2023-01-31T18:55:14.175Z,8.67
2023-01-31T18:57:59.737Z,7.17
2023-01-31T19:00:46.558Z,7.80
2023-01-31T19:03:32.521Z,7.97
2023-01-31T19:06:19.466Z,9.30
2023-01-31T19:09:08.542Z,8.23
2023-01-31T19:11:53.838Z,7.73
2023-01-31T19:14:39.432Z,8.37
2023-01-31T19:17:26.107Z,7.60
2023-01-31T19:20:13.258Z,8.57
2023-01-31T19:23:00.249Z,10.40
2023-01-31T19:25:52.901Z,10.27
2023-01-31T19:28:38.384Z,10.90
2023-01-31T19:31:25.713Z,9.63
2023-01-31T19:34:12.931Z,11.83
2023-01-31T19:36:59.029Z,11.30
2023-01-31T19:39:47.101Z,10.37
2023-01-31T19:42:31.937Z,10.27
2023-01-31T19:45:24.511Z,10.63
2023-01-31T19:48:10.157Z,10.80
2023-01-31T19:50:56.771Z,10.73
2023-01-31T19:53:43.198Z,10.13
2023-01-31T19:56:27.892Z,11.37
2023-01-31T19:59:12.702Z,10.57
2023-01-31T20:01:56.497Z,9.80
2023-01-31T20:04:40.366Z,9.37
2023-01-31T20:07:26.782Z,9.83
2023-01-31T20:10:13.033Z,8.90
2023-01-31T20:12:57.284Z,9.30
2023-01-31T20:15:41.094Z,10.43
2023-01-31T20:18:25.382Z,10.33
2023-01-31T20:21:10.163Z,8.60
2023-01-31T20:23:55.472Z,10.10
2023-01-31T20:26:39.456Z,9.50
2023-01-31T20:29:23.334Z,10.07
2023-01-31T20:32:09.542Z,9.20
2023-01-31T20:34:53.584Z,9.30
2023-01-31T20:37:37.353Z,9.37
2023-01-31T20:40:23.091Z,10.13
2023-01-31T20:43:08.092Z,10.77
2023-01-31T20:45:52.441Z,9.50
2023-01-31T20:48:36.965Z,10.03
2023-01-31T20:51:21.189Z,10.10
2023-01-31T20:54:06.233Z,7.93
2023-01-31T20:56:52.229Z,9.10
2023-01-31T20:59:36.009Z,10.90
2023-01-31T21:02:20.581Z,8.90
2023-01-31T21:05:04.445Z,8.77
2023-01-31T21:07:48.370Z,9.37
2023-01-31T21:10:34.587Z,9.07
2023-01-31T21:13:21.621Z,8.93
2023-01-31T21:16:08.065Z,8.30
2023-01-31T21:18:52.263Z,9.87
2023-01-31T21:21:36.373Z,8.63
2023-01-31T21:24:20.612Z,9.40
2023-01-31T21:27:04.375Z,8.30
2023-01-31T21:29:49.633Z,7.73
2023-01-31T21:32:33.398Z,8.53
2023-01-31T21:35:18.102Z,8.50
2023-01-31T21:38:02.073Z,8.73
2023-01-31T21:40:46.261Z,7.97
2023-01-31T21:43:30.978Z,8.53
2023-01-31T21:46:16.784Z,7.57
2023-01-31T21:49:01.436Z,7.37
2023-01-31T21:51:45.768Z,7.93
2023-01-31T21:54:29.764Z,7.57
2023-01-31T21:57:13.747Z,7.20
2023-01-31T21:59:57.724Z,7.97
2023-01-31T22:02:43.379Z,7.13
2023-01-31T22:05:27.377Z,7.70
2023-01-31T22:08:11.721Z,7.07
2023-01-31T22:11:00.524Z,7.50
2023-01-31T22:13:45.455Z,7.43
2023-01-31T22:16:29.742Z,8.93
2023-01-31T22:19:16.097Z,8.30
2023-01-31T22:22:00.467Z,7.23
2023-01-31T22:24:45.457Z,7.53
2023-01-31T22:27:29.256Z,7.70
2023-01-31T22:30:16.448Z,6.90
2023-01-31T22:33:00.602Z,8.20
2023-01-31T22:35:46.307Z,7.90
2023-01-31T22:38:30.358Z,7.73
2023-01-31T22:41:18.274Z,7.70
2023-01-31T22:44:03.667Z,7.17
2023-01-31T22:46:47.583Z,8.00
2023-01-31T22:49:31.417Z,8.00
2023-01-31T22:52:16.667Z,9.57
2023-01-31T22:55:00.463Z,7.70
2023-01-31T22:57:44.470Z,7.37
2023-01-31T23:00:28.163Z,8.77
2023-01-31T23:03:12.362Z,9.30
2023-01-31T23:05:56.456Z,8.90
2023-01-31T23:08:42.638Z,9.63
2023-01-31T23:11:26.885Z,9.03
2023-01-31T23:14:10.895Z,9.70
2023-01-31T23:17:12.457Z,10.00
2023-01-31T23:19:56.343Z,9.13
2023-01-31T23:22:40.340Z,10.00
2023-01-31T23:25:27.433Z,10.57
2023-01-31T23:28:11.439Z,9.33
2023-01-31T23:30:55.392Z,11.27
2023-01-31T23:33:39.265Z,10.03
2023-01-31T23:36:23.272Z,9.77
2023-01-31T23:39:07.426Z,9.73
2023-01-31T23:41:53.034Z,9.50
2023-01-31T23:44:37.079Z,10.33
2023-01-31T23:47:21.170Z,11.47
2023-01-31T23:50:05.356Z,10.77
2023-01-31T23:52:49.655Z,10.73
2023-01-31T23:55:33.615Z,8.93
2023-01-31T23:58:19.199Z,10.00
